sensor_id;sensor_type;location;lat;lon;timestamp;P1;durP1;ratioP1;P2;durP2;ratioP2
13163;SDS011;6647;53.688;10.746;2024-01-15T00:00:46;10.55;;;3.20;;
13163;SDS011;6647;53.688;10.746;2024-01-15T00:01:46;21.97;;;2.43;;
13163;SDS011;6647;53.688;10.746;2024-01-15T00:02:47;12.97;;;2.30;;
13163;SDS011;6647;53.688;10.746;2024-01-15T00:03:47;13.63;;;2.10;;
13163;SDS011;6647;53.688;10.746;2024-01-15T00:04:47;11.00;;;2.57;;
13163;SDS011;6647;53.688;10.746;2024-01-15T00:05:47;15.40;;;2.77;;
13163;SDS011;6647;53.688;10.746;2024-01-15T00:06:48;13.57;;;2.87;;
13163;SDS011;6647;53.688;10.746;2024-01-15T00:07:49;18.63;;;2.58;;
13163;SDS011;6647;53.688;10.746;2024-01-15T00:08:49;9.27;;;2.03;;
13163;SDS011;6647;53.688;10.746;2024-01-15T00:09:50;11.23;;;1.87;;
13163;SDS011;6647;53.688;10.746;2024-01-15T00:10:50;11.40;;;2.50;;
13163;SDS011;6647;53.688;10.746;2024-01-15T00:11:51;13.05;;;2.47;;
13163;SDS011;6647;53.688;10.746;2024-01-15T00:12:52;13.35;;;2.35;;
13163;SDS011;6647;53.688;10.746;2024-01-15T00:13:53;15.57;;;2.93;;
13163;SDS011;6647;53.688;10.746;2024-01-15T00:14:53;10.23;;;2.47;;
13163;SDS011;6647;53.688;10.746;2024-01-15T00:15:53;12.20;;;2.60;;
13163;SDS011;6647;53.688;10.746;2024-01-15T00:16:54;12.67;;;2.53;;
13163;SDS011;6647;53.688;10.746;2024-01-15T00:17:55;18.75;;;2.65;;
13163;SDS011;6647;53.688;10.746;2024-01-15T00:18:57;17.90;;;2.70;;
13163;SDS011;6647;53.688;10.746;2024-01-15T00:19:59;6.55;;;2.42;;
13163;SDS011;6647;53.688;10.746;2024-01-15T00:21:01;7.28;;;2.03;;
13163;SDS011;6647;53.688;10.746;2024-01-15T00:22:02;9.30;;;2.33;;
13163;SDS011;6647;53.688;10.746;2024-01-15T00:23:03;14.13;;;3.08;;
13163;SDS011;6647;53.688;10.746;2024-01-15T00:24:05;6.65;;;2.30;;
13163;SDS011;6647;53.688;10.746;2024-01-15T00:25:07;12.68;;;3.05;;
13163;SDS011;6647;53.688;10.746;2024-01-15T00:26:08;23.53;;;2.50;;
13163;SDS011;6647;53.688;10.746;2024-01-15T00:27:08;14.23;;;2.87;;
13163;SDS011;6647;53.688;10.746;2024-01-15T00:28:08;23.90;;;2.87;;
13163;SDS011;6647;53.688;10.746;2024-01-15T00:29:10;23.85;;;3.63;;
13163;SDS011;6647;53.688;10.746;2024-01-15T00:30:11;11.18;;;1.73;;
13163;SDS011;6647;53.688;10.746;2024-01-15T00:31:12;13.13;;;2.00;;
13163;SDS011;6647;53.688;10.746;2024-01-15T00:32:12;11.73;;;2.47;;
13163;SDS011;6647;53.688;10.746;2024-01-15T00:33:12;8.97;;;2.10;;
13163;SDS011;6647;53.688;10.746;2024-01-15T00:34:14;12.38;;;1.85;;
13163;SDS011;6647;53.688;10.746;2024-01-15T00:35:14;9.63;;;1.90;;
13163;SDS011;6647;53.688;10.746;2024-01-15T00:36:15;12.60;;;2.67;;
13163;SDS011;6647;53.688;10.746;2024-01-15T00:37:16;10.15;;;1.75;;
13163;SDS011;6647;53.688;10.746;2024-01-15T00:38:17;9.90;;;2.83;;
13163;SDS011;6647;53.688;10.746;2024-01-15T00:39:17;5.13;;;1.73;;
13163;SDS011;6647;53.688;10.746;2024-01-15T00:40:18;17.30;;;2.93;;
13163;SDS011;6647;53.688;10.746;2024-01-15T00:41:18;22.70;;;2.20;;
13163;SDS011;6647;53.688;10.746;2024-01-15T00:42:18;13.13;;;2.10;;
13163;SDS011;6647;53.688;10.746;2024-01-15T00:43:20;22.13;;;3.08;;
13163;SDS011;6647;53.688;10.746;2024-01-15T00:44:22;10.82;;;2.17;;
13163;SDS011;6647;53.688;10.746;2024-01-15T00:45:22;11.70;;;2.37;;
13163;SDS011;6647;53.688;10.746;2024-01-15T00:46:23;12.60;;;2.13;;
13163;SDS011;6647;53.688;10.746;2024-01-15T00:47:23;16.77;;;3.13;;
13163;SDS011;6647;53.688;10.746;2024-01-15T00:48:23;11.87;;;3.07;;
13163;SDS011;6647;53.688;10.746;2024-01-15T00:49:23;12.03;;;3.20;;
13163;SDS011;6647;53.688;10.746;2024-01-15T00:50:24;17.03;;;2.90;;
13163;SDS011;6647;53.688;10.746;2024-01-15T00:51:24;13.57;;;2.20;;
13163;SDS011;6647;53.688;10.746;2024-01-15T00:52:25;13.60;;;3.53;;
13163;SDS011;6647;53.688;10.746;2024-01-15T00:53:25;8.30;;;2.20;;
13163;SDS011;6647;53.688;10.746;2024-01-15T00:54:26;11.47;;;2.53;;
13163;SDS011;6647;53.688;10.746;2024-01-15T00:55:28;25.52;;;2.78;;
13163;SDS011;6647;53.688;10.746;2024-01-15T00:56:29;15.23;;;2.10;;
13163;SDS011;6647;53.688;10.746;2024-01-15T00:57:29;8.80;;;2.67;;
13163;SDS011;6647;53.688;10.746;2024-01-15T00:58:30;9.93;;;2.20;;
13163;SDS011;6647;53.688;10.746;2024-01-15T00:59:32;10.43;;;2.22;;
13163;SDS011;6647;53.688;10.746;2024-01-15T01:00:34;17.50;;;2.50;;
13163;SDS011;6647;53.688;10.746;2024-01-15T01:01:36;14.25;;;2.70;;
13163;SDS011;6647;53.688;10.746;2024-01-15T01:02:38;12.20;;;2.60;;
13163;SDS011;6647;53.688;10.746;2024-01-15T01:03:40;8.25;;;2.67;;
13163;SDS011;6647;53.688;10.746;2024-01-15T01:04:42;9.85;;;2.45;;
13163;SDS011;6647;53.688;10.746;2024-01-15T01:05:42;13.80;;;2.47;;
13163;SDS011;6647;53.688;10.746;2024-01-15T01:06:44;10.50;;;2.20;;
13163;SDS011;6647;53.688;10.746;2024-01-15T01:07:44;11.30;;;2.00;;
13163;SDS011;6647;53.688;10.746;2024-01-15T01:08:44;8.50;;;2.20;;
13163;SDS011;6647;53.688;10.746;2024-01-15T01:09:44;15.60;;;2.60;;
13163;SDS011;6647;53.688;10.746;2024-01-15T01:10:45;10.13;;;2.27;;
13163;SDS011;6647;53.688;10.746;2024-01-15T01:11:45;13.30;;;2.63;;
13163;SDS011;6647;53.688;10.746;2024-01-15T01:12:46;6.10;;;2.30;;
13163;SDS011;6647;53.688;10.746;2024-01-15T01:13:46;10.97;;;2.63;;
13163;SDS011;6647;53.688;10.746;2024-01-15T01:14:46;10.90;;;1.90;;
13163;SDS011;6647;53.688;10.746;2024-01-15T01:15:46;6.20;;;2.03;;
13163;SDS011;6647;53.688;10.746;2024-01-15T01:16:47;14.43;;;3.03;;
13163;SDS011;6647;53.688;10.746;2024-01-15T01:17:47;12.57;;;2.17;;
13163;SDS011;6647;53.688;10.746;2024-01-15T01:18:47;13.13;;;2.40;;
13163;SDS011;6647;53.688;10.746;2024-01-15T01:19:49;9.73;;;1.70;;
13163;SDS011;6647;53.688;10.746;2024-01-15T01:20:50;11.38;;;2.38;;
13163;SDS011;6647;53.688;10.746;2024-01-15T01:21:52;15.90;;;2.97;;
13163;SDS011;6647;53.688;10.746;2024-01-15T01:22:52;6.17;;;1.83;;
13163;SDS011;6647;53.688;10.746;2024-01-15T01:23:53;7.77;;;2.20;;
13163;SDS011;6647;53.688;10.746;2024-01-15T01:24:53;9.97;;;2.30;;
13163;SDS011;6647;53.688;10.746;2024-01-15T01:25:53;9.60;;;2.53;;
13163;SDS011;6647;53.688;10.746;2024-01-15T01:26:53;7.57;;;2.37;;
13163;SDS011;6647;53.688;10.746;2024-01-15T01:27:54;5.13;;;2.30;;
13163;SDS011;6647;53.688;10.746;2024-01-15T01:28:54;15.00;;;3.40;;
13163;SDS011;6647;53.688;10.746;2024-01-15T01:29:54;14.80;;;2.73;;
13163;SDS011;6647;53.688;10.746;2024-01-15T01:30:56;16.70;;;2.95;;
13163;SDS011;6647;53.688;10.746;2024-01-15T01:31:58;12.77;;;2.65;;
13163;SDS011;6647;53.688;10.746;2024-01-15T01:33:00;20.88;;;3.38;;
13163;SDS011;6647;53.688;10.746;2024-01-15T01:34:02;11.95;;;2.50;;
13163;SDS011;6647;53.688;10.746;2024-01-15T01:35:02;21.03;;;2.50;;
13163;SDS011;6647;53.688;10.746;2024-01-15T01:36:06;12.80;;;2.23;;
13163;SDS011;6647;53.688;10.746;2024-01-15T01:37:07;21.27;;;2.75;;
13163;SDS011;6647;53.688;10.746;2024-01-15T01:38:08;7.05;;;2.55;;
13163;SDS011;6647;53.688;10.746;2024-01-15T01:39:09;12.90;;;2.60;;
13163;SDS011;6647;53.688;10.746;2024-01-15T01:40:10;12.03;;;2.40;;
13163;SDS011;6647;53.688;10.746;2024-01-15T01:41:11;15.38;;;3.22;;
13163;SDS011;6647;53.688;10.746;2024-01-15T01:42:11;15.73;;;2.50;;
13163;SDS011;6647;53.688;10.746;2024-01-15T01:43:12;9.23;;;2.20;;
13163;SDS011;6647;53.688;10.746;2024-01-15T01:44:12;9.43;;;2.40;;
13163;SDS011;6647;53.688;10.746;2024-01-15T01:45:12;12.40;;;2.50;;
13163;SDS011;6647;53.688;10.746;2024-01-15T01:46:12;6.37;;;1.97;;
13163;SDS011;6647;53.688;10.746;2024-01-15T01:47:13;11.23;;;2.50;;
13163;SDS011;6647;53.688;10.746;2024-01-15T01:48:14;10.27;;;2.20;;
13163;SDS011;6647;53.688;10.746;2024-01-15T01:49:14;11.20;;;2.90;;
13163;SDS011;6647;53.688;10.746;2024-01-15T01:50:15;17.50;;;2.50;;
13163;SDS011;6647;53.688;10.746;2024-01-15T01:51:16;5.80;;;2.03;;
13163;SDS011;6647;53.688;10.746;2024-01-15T01:52:16;8.40;;;2.50;;
13163;SDS011;6647;53.688;10.746;2024-01-15T01:53:16;18.73;;;2.80;;
13163;SDS011;6647;53.688;10.746;2024-01-15T01:54:17;11.37;;;3.03;;
13163;SDS011;6647;53.688;10.746;2024-01-15T01:55:18;15.57;;;2.20;;
13163;SDS011;6647;53.688;10.746;2024-01-15T01:56:20;8.82;;;2.33;;
13163;SDS011;6647;53.688;10.746;2024-01-15T01:57:22;10.05;;;2.28;;
13163;SDS011;6647;53.688;10.746;2024-01-15T01:58:23;12.47;;;2.00;;
13163;SDS011;6647;53.688;10.746;2024-01-15T01:59:23;8.37;;;2.30;;
13163;SDS011;6647;53.688;10.746;2024-01-15T02:00:27;7.47;;;2.20;;
13163;SDS011;6647;53.688;10.746;2024-01-15T02:01:29;10.13;;;2.22;;
13163;SDS011;6647;53.688;10.746;2024-01-15T02:02:31;9.27;;;1.92;;
13163;SDS011;6647;53.688;10.746;2024-01-15T02:03:33;24.90;;;3.80;;
13163;SDS011;6647;53.688;10.746;2024-01-15T02:04:35;13.07;;;2.58;;
13163;SDS011;6647;53.688;10.746;2024-01-15T02:05:37;8.48;;;1.90;;
13163;SDS011;6647;53.688;10.746;2024-01-15T02:06:39;14.93;;;3.15;;
13163;SDS011;6647;53.688;10.746;2024-01-15T02:07:41;8.95;;;2.13;;
13163;SDS011;6647;53.688;10.746;2024-01-15T02:08:43;15.90;;;2.70;;
13163;SDS011;6647;53.688;10.746;2024-01-15T02:09:44;8.88;;;2.33;;
13163;SDS011;6647;53.688;10.746;2024-01-15T02:10:44;11.65;;;2.28;;
13163;SDS011;6647;53.688;10.746;2024-01-15T02:11:47;6.73;;;1.90;;
13163;SDS011;6647;53.688;10.746;2024-01-15T02:12:48;11.25;;;1.80;;
13163;SDS011;6647;53.688;10.746;2024-01-15T02:13:48;9.20;;;1.90;;
13163;SDS011;6647;53.688;10.746;2024-01-15T02:14:49;8.13;;;1.60;;
13163;SDS011;6647;53.688;10.746;2024-01-15T02:15:52;9.95;;;2.20;;
13163;SDS011;6647;53.688;10.746;2024-01-15T02:16:53;9.52;;;2.10;;
13163;SDS011;6647;53.688;10.746;2024-01-15T02:18:03;7.77;;;1.77;;
13163;SDS011;6647;53.688;10.746;2024-01-15T02:19:04;13.63;;;1.88;;
13163;SDS011;6647;53.688;10.746;2024-01-15T02:20:07;16.02;;;2.00;;
13163;SDS011;6647;53.688;10.746;2024-01-15T02:21:09;8.55;;;1.75;;
13163;SDS011;6647;53.688;10.746;2024-01-15T02:22:09;16.90;;;3.00;;
13163;SDS011;6647;53.688;10.746;2024-01-15T02:23:11;10.02;;;3.28;;
13163;SDS011;6647;53.688;10.746;2024-01-15T02:24:12;8.80;;;1.98;;
13163;SDS011;6647;53.688;10.746;2024-01-15T02:25:12;5.27;;;1.70;;
13163;SDS011;6647;53.688;10.746;2024-01-15T02:26:13;10.33;;;2.23;;
13163;SDS011;6647;53.688;10.746;2024-01-15T02:27:14;13.68;;;2.97;;
13163;SDS011;6647;53.688;10.746;2024-01-15T02:28:15;10.07;;;1.90;;
13163;SDS011;6647;53.688;10.746;2024-01-15T02:29:17;10.10;;;2.20;;
13163;SDS011;6647;53.688;10.746;2024-01-15T02:30:18;12.50;;;1.73;;
13163;SDS011;6647;53.688;10.746;2024-01-15T02:31:19;16.38;;;1.92;;
13163;SDS011;6647;53.688;10.746;2024-01-15T02:32:20;6.95;;;1.63;;
13163;SDS011;6647;53.688;10.746;2024-01-15T02:33:21;12.48;;;2.15;;
13163;SDS011;6647;53.688;10.746;2024-01-15T02:34:22;12.55;;;1.77;;
13163;SDS011;6647;53.688;10.746;2024-01-15T02:35:23;12.73;;;2.40;;
13163;SDS011;6647;53.688;10.746;2024-01-15T02:36:23;6.80;;;2.30;;
13163;SDS011;6647;53.688;10.746;2024-01-15T02:37:23;8.80;;;2.33;;
13163;SDS011;6647;53.688;10.746;2024-01-15T02:38:24;12.40;;;2.30;;
13163;SDS011;6647;53.688;10.746;2024-01-15T02:39:24;14.73;;;2.03;;
13163;SDS011;6647;53.688;10.746;2024-01-15T02:40:24;15.93;;;2.60;;
13163;SDS011;6647;53.688;10.746;2024-01-15T02:41:24;12.83;;;2.97;;
13163;SDS011;6647;53.688;10.746;2024-01-15T02:42:26;15.83;;;3.17;;
13163;SDS011;6647;53.688;10.746;2024-01-15T02:43:26;16.42;;;3.60;;
13163;SDS011;6647;53.688;10.746;2024-01-15T02:44:28;8.82;;;2.08;;
13163;SDS011;6647;53.688;10.746;2024-01-15T02:45:30;16.42;;;2.38;;
13163;SDS011;6647;53.688;10.746;2024-01-15T02:46:31;16.47;;;2.60;;
13163;SDS011;6647;53.688;10.746;2024-01-15T02:47:32;17.95;;;2.90;;
13163;SDS011;6647;53.688;10.746;2024-01-15T02:48:34;15.25;;;2.10;;
13163;SDS011;6647;53.688;10.746;2024-01-15T02:49:36;15.50;;;3.33;;
13163;SDS011;6647;53.688;10.746;2024-01-15T02:50:38;11.05;;;2.20;;
13163;SDS011;6647;53.688;10.746;2024-01-15T02:51:40;14.77;;;2.55;;
13163;SDS011;6647;53.688;10.746;2024-01-15T02:52:42;14.23;;;2.38;;
13163;SDS011;6647;53.688;10.746;2024-01-15T02:53:42;6.97;;;2.00;;
13163;SDS011;6647;53.688;10.746;2024-01-15T02:54:43;13.97;;;1.70;;
13163;SDS011;6647;53.688;10.746;2024-01-15T02:55:43;9.97;;;1.63;;
13163;SDS011;6647;53.688;10.746;2024-01-15T02:56:43;11.80;;;2.00;;
13163;SDS011;6647;53.688;10.746;2024-01-15T02:57:44;15.40;;;2.33;;
13163;SDS011;6647;53.688;10.746;2024-01-15T02:58:44;12.23;;;1.60;;
13163;SDS011;6647;53.688;10.746;2024-01-15T02:59:44;12.23;;;1.70;;
13163;SDS011;6647;53.688;10.746;2024-01-15T03:00:45;9.37;;;1.70;;
13163;SDS011;6647;53.688;10.746;2024-01-15T03:01:46;11.93;;;1.80;;
13163;SDS011;6647;53.688;10.746;2024-01-15T03:02:47;16.93;;;2.00;;
13163;SDS011;6647;53.688;10.746;2024-01-15T03:03:48;17.27;;;2.13;;
13163;SDS011;6647;53.688;10.746;2024-01-15T03:04:48;20.10;;;2.33;;
13163;SDS011;6647;53.688;10.746;2024-01-15T03:05:48;12.57;;;1.73;;
13163;SDS011;6647;53.688;10.746;2024-01-15T03:06:48;8.40;;;2.03;;
13163;SDS011;6647;53.688;10.746;2024-01-15T03:07:50;17.80;;;2.67;;
13163;SDS011;6647;53.688;10.746;2024-01-15T03:08:52;12.02;;;2.40;;
13163;SDS011;6647;53.688;10.746;2024-01-15T03:09:53;11.30;;;1.90;;
13163;SDS011;6647;53.688;10.746;2024-01-15T03:10:53;10.53;;;1.93;;
13163;SDS011;6647;53.688;10.746;2024-01-15T03:11:53;13.63;;;2.47;;
13163;SDS011;6647;53.688;10.746;2024-01-15T03:12:54;12.13;;;2.47;;
13163;SDS011;6647;53.688;10.746;2024-01-15T03:13:54;16.33;;;3.30;;
13163;SDS011;6647;53.688;10.746;2024-01-15T03:14:54;11.90;;;2.37;;
13163;SDS011;6647;53.688;10.746;2024-01-15T03:15:54;19.90;;;2.77;;
13163;SDS011;6647;53.688;10.746;2024-01-15T03:16:55;19.10;;;4.30;;
13163;SDS011;6647;53.688;10.746;2024-01-15T03:17:56;7.65;;;2.15;;
13163;SDS011;6647;53.688;10.746;2024-01-15T03:18:58;12.80;;;2.40;;
13163;SDS011;6647;53.688;10.746;2024-01-15T03:20:01;9.25;;;2.63;;
13163;SDS011;6647;53.688;10.746;2024-01-15T03:21:01;12.20;;;3.17;;
13163;SDS011;6647;53.688;10.746;2024-01-15T03:22:02;11.50;;;2.63;;
13163;SDS011;6647;53.688;10.746;2024-01-15T03:23:04;15.60;;;3.03;;
13163;SDS011;6647;53.688;10.746;2024-01-15T03:24:06;19.63;;;2.90;;
13163;SDS011;6647;53.688;10.746;2024-01-15T03:25:08;11.23;;;2.83;;
13163;SDS011;6647;53.688;10.746;2024-01-15T03:26:09;12.13;;;2.83;;
13163;SDS011;6647;53.688;10.746;2024-01-15T03:27:10;17.23;;;2.33;;
13163;SDS011;6647;53.688;10.746;2024-01-15T03:28:11;14.48;;;2.92;;
13163;SDS011;6647;53.688;10.746;2024-01-15T03:29:12;6.70;;;1.55;;
13163;SDS011;6647;53.688;10.746;2024-01-15T03:30:13;9.17;;;1.67;;
13163;SDS011;6647;53.688;10.746;2024-01-15T03:31:13;10.30;;;2.23;;
13163;SDS011;6647;53.688;10.746;2024-01-15T03:32:13;19.30;;;2.83;;
13163;SDS011;6647;53.688;10.746;2024-01-15T03:33:15;9.35;;;1.20;;
13163;SDS011;6647;53.688;10.746;2024-01-15T03:34:16;4.60;;;1.43;;
13163;SDS011;6647;53.688;10.746;2024-01-15T03:35:16;5.40;;;1.33;;
13163;SDS011;6647;53.688;10.746;2024-01-15T03:36:16;7.40;;;1.50;;
13163;SDS011;6647;53.688;10.746;2024-01-15T03:37:17;11.50;;;2.03;;
13163;SDS011;6647;53.688;10.746;2024-01-15T03:38:17;12.30;;;1.57;;
13163;SDS011;6647;53.688;10.746;2024-01-15T03:39:17;6.97;;;1.70;;
13163;SDS011;6647;53.688;10.746;2024-01-15T03:40:18;11.10;;;2.07;;
13163;SDS011;6647;53.688;10.746;2024-01-15T03:41:18;10.23;;;2.20;;
13163;SDS011;6647;53.688;10.746;2024-01-15T03:42:18;9.07;;;1.60;;
13163;SDS011;6647;53.688;10.746;2024-01-15T03:43:20;11.65;;;1.90;;
13163;SDS011;6647;53.688;10.746;2024-01-15T03:44:22;6.60;;;1.52;;
13163;SDS011;6647;53.688;10.746;2024-01-15T03:45:23;6.20;;;1.50;;
13163;SDS011;6647;53.688;10.746;2024-01-15T03:46:23;12.47;;;2.00;;
13163;SDS011;6647;53.688;10.746;2024-01-15T03:47:23;6.73;;;1.63;;
13163;SDS011;6647;53.688;10.746;2024-01-15T03:48:23;13.80;;;2.17;;
13163;SDS011;6647;53.688;10.746;2024-01-15T03:49:24;8.00;;;1.60;;
13163;SDS011;6647;53.688;10.746;2024-01-15T03:50:24;7.20;;;1.40;;
13163;SDS011;6647;53.688;10.746;2024-01-15T03:51:25;5.67;;;1.60;;
13163;SDS011;6647;53.688;10.746;2024-01-15T03:52:25;6.43;;;1.43;;
13163;SDS011;6647;53.688;10.746;2024-01-15T03:53:25;7.33;;;1.40;;
13163;SDS011;6647;53.688;10.746;2024-01-15T03:54:27;13.95;;;2.15;;
13163;SDS011;6647;53.688;10.746;2024-01-15T03:55:29;7.47;;;1.58;;
13163;SDS011;6647;53.688;10.746;2024-01-15T03:56:31;8.73;;;1.95;;
13163;SDS011;6647;53.688;10.746;2024-01-15T03:57:32;8.40;;;2.00;;
13163;SDS011;6647;53.688;10.746;2024-01-15T03:58:34;16.08;;;2.10;;
13163;SDS011;6647;53.688;10.746;2024-01-15T03:59:36;13.13;;;2.90;;
13163;SDS011;6647;53.688;10.746;2024-01-15T04:00:38;7.85;;;1.48;;
13163;SDS011;6647;53.688;10.746;2024-01-15T04:01:40;10.60;;;1.50;;
13163;SDS011;6647;53.688;10.746;2024-01-15T04:02:41;10.60;;;1.73;;
13163;SDS011;6647;53.688;10.746;2024-01-15T04:03:42;10.07;;;2.05;;
13163;SDS011;6647;53.688;10.746;2024-01-15T04:04:43;31.27;;;2.70;;
13163;SDS011;6647;53.688;10.746;2024-01-15T04:05:43;9.67;;;2.17;;
13163;SDS011;6647;53.688;10.746;2024-01-15T04:06:43;10.33;;;2.07;;
13163;SDS011;6647;53.688;10.746;2024-01-15T04:07:44;7.33;;;1.93;;
13163;SDS011;6647;53.688;10.746;2024-01-15T04:08:44;10.10;;;2.47;;
13163;SDS011;6647;53.688;10.746;2024-01-15T04:09:44;10.70;;;1.77;;
13163;SDS011;6647;53.688;10.746;2024-01-15T04:10:44;14.43;;;1.80;;
13163;SDS011;6647;53.688;10.746;2024-01-15T04:11:45;10.13;;;2.17;;
13163;SDS011;6647;53.688;10.746;2024-01-15T04:12:45;12.60;;;2.10;;
13163;SDS011;6647;53.688;10.746;2024-01-15T04:13:46;25.57;;;2.60;;
13163;SDS011;6647;53.688;10.746;2024-01-15T04:14:46;16.20;;;2.60;;
13163;SDS011;6647;53.688;10.746;2024-01-15T04:15:46;28.10;;;4.13;;
13163;SDS011;6647;53.688;10.746;2024-01-15T04:16:47;11.97;;;2.00;;
13163;SDS011;6647;53.688;10.746;2024-01-15T04:17:47;12.77;;;2.30;;
13163;SDS011;6647;53.688;10.746;2024-01-15T04:18:47;7.30;;;1.73;;
13163;SDS011;6647;53.688;10.746;2024-01-15T04:19:47;14.00;;;2.57;;
13163;SDS011;6647;53.688;10.746;2024-01-15T04:20:48;17.70;;;2.30;;
13163;SDS011;6647;53.688;10.746;2024-01-15T04:21:48;11.00;;;2.77;;
13163;SDS011;6647;53.688;10.746;2024-01-15T04:22:48;13.13;;;1.93;;
13163;SDS011;6647;53.688;10.746;2024-01-15T04:23:50;27.02;;;2.67;;
13163;SDS011;6647;53.688;10.746;2024-01-15T04:24:52;13.43;;;2.83;;
13163;SDS011;6647;53.688;10.746;2024-01-15T04:25:53;15.75;;;3.05;;
13163;SDS011;6647;53.688;10.746;2024-01-15T04:26:53;15.77;;;2.30;;
13163;SDS011;6647;53.688;10.746;2024-01-15T04:27:54;10.90;;;2.30;;
13163;SDS011;6647;53.688;10.746;2024-01-15T04:28:54;16.37;;;2.80;;
13163;SDS011;6647;53.688;10.746;2024-01-15T04:29:54;23.57;;;2.50;;
13163;SDS011;6647;53.688;10.746;2024-01-15T04:30:54;15.03;;;2.87;;
13163;SDS011;6647;53.688;10.746;2024-01-15T04:31:55;11.47;;;2.83;;
13163;SDS011;6647;53.688;10.746;2024-01-15T04:32:55;15.13;;;2.70;;
13163;SDS011;6647;53.688;10.746;2024-01-15T04:33:57;12.63;;;2.67;;
13163;SDS011;6647;53.688;10.746;2024-01-15T04:34:59;16.95;;;2.17;;
13163;SDS011;6647;53.688;10.746;2024-01-15T04:36:03;14.60;;;2.47;;
13163;SDS011;6647;53.688;10.746;2024-01-15T04:37:04;17.05;;;2.72;;
13163;SDS011;6647;53.688;10.746;2024-01-15T04:38:05;14.90;;;2.70;;
13163;SDS011;6647;53.688;10.746;2024-01-15T04:39:07;17.10;;;2.50;;
13163;SDS011;6647;53.688;10.746;2024-01-15T04:40:08;20.80;;;2.67;;
13163;SDS011;6647;53.688;10.746;2024-01-15T04:41:13;21.23;;;2.75;;
13163;SDS011;6647;53.688;10.746;2024-01-15T04:42:14;14.55;;;2.58;;
13163;SDS011;6647;53.688;10.746;2024-01-15T04:43:14;19.17;;;3.43;;
13163;SDS011;6647;53.688;10.746;2024-01-15T04:44:14;17.03;;;3.60;;
13163;SDS011;6647;53.688;10.746;2024-01-15T04:45:15;18.33;;;3.40;;
13163;SDS011;6647;53.688;10.746;2024-01-15T04:46:15;15.83;;;3.13;;
13163;SDS011;6647;53.688;10.746;2024-01-15T04:47:15;17.93;;;3.03;;
13163;SDS011;6647;53.688;10.746;2024-01-15T04:48:16;52.63;;;3.33;;
13163;SDS011;6647;53.688;10.746;2024-01-15T04:49:17;17.40;;;3.60;;
13163;SDS011;6647;53.688;10.746;2024-01-15T04:50:17;20.03;;;3.10;;
13163;SDS011;6647;53.688;10.746;2024-01-15T04:51:17;22.33;;;2.83;;
13163;SDS011;6647;53.688;10.746;2024-01-15T04:52:17;33.60;;;3.27;;
13163;SDS011;6647;53.688;10.746;2024-01-15T04:53:18;17.00;;;3.07;;
13163;SDS011;6647;53.688;10.746;2024-01-15T04:54:18;28.77;;;3.00;;
13163;SDS011;6647;53.688;10.746;2024-01-15T04:55:20;27.92;;;3.22;;
13163;SDS011;6647;53.688;10.746;2024-01-15T04:56:21;24.55;;;3.15;;
13163;SDS011;6647;53.688;10.746;2024-01-15T04:57:22;14.43;;;2.50;;
13163;SDS011;6647;53.688;10.746;2024-01-15T04:58:23;32.58;;;4.00;;
13163;SDS011;6647;53.688;10.746;2024-01-15T04:59:27;16.02;;;2.75;;
13163;SDS011;6647;53.688;10.746;2024-01-15T05:00:29;25.17;;;4.03;;
13163;SDS011;6647;53.688;10.746;2024-01-15T05:01:31;22.13;;;3.40;;
13163;SDS011;6647;53.688;10.746;2024-01-15T05:02:33;13.57;;;2.83;;
13163;SDS011;6647;53.688;10.746;2024-01-15T05:03:35;21.67;;;2.75;;
13163;SDS011;6647;53.688;10.746;2024-01-15T05:04:36;29.70;;;4.47;;
13163;SDS011;6647;53.688;10.746;2024-01-15T05:05:36;24.03;;;4.17;;
13163;SDS011;6647;53.688;10.746;2024-01-15T05:06:37;17.60;;;4.00;;
13163;SDS011;6647;53.688;10.746;2024-01-15T05:07:38;18.10;;;3.20;;
13163;SDS011;6647;53.688;10.746;2024-01-15T05:08:38;10.90;;;2.53;;
13163;SDS011;6647;53.688;10.746;2024-01-15T05:09:38;22.07;;;3.40;;
13163;SDS011;6647;53.688;10.746;2024-01-15T05:10:39;22.17;;;3.33;;
13163;SDS011;6647;53.688;10.746;2024-01-15T05:11:39;35.10;;;4.90;;
13163;SDS011;6647;53.688;10.746;2024-01-15T05:12:39;20.63;;;2.90;;
13163;SDS011;6647;53.688;10.746;2024-01-15T05:13:40;29.17;;;3.50;;
13163;SDS011;6647;53.688;10.746;2024-01-15T05:14:40;39.30;;;3.93;;
13163;SDS011;6647;53.688;10.746;2024-01-15T05:15:40;18.27;;;3.43;;
13163;SDS011;6647;53.688;10.746;2024-01-15T05:16:47;17.27;;;3.63;;
13163;SDS011;6647;53.688;10.746;2024-01-15T05:17:50;22.30;;;3.10;;
13163;SDS011;6647;53.688;10.746;2024-01-15T05:18:51;25.33;;;3.38;;
13163;SDS011;6647;53.688;10.746;2024-01-15T05:19:52;20.48;;;4.03;;
13163;SDS011;6647;53.688;10.746;2024-01-15T05:20:53;34.70;;;3.70;;
13163;SDS011;6647;53.688;10.746;2024-01-15T05:21:53;20.83;;;4.47;;
13163;SDS011;6647;53.688;10.746;2024-01-15T05:22:54;32.93;;;6.03;;
13163;SDS011;6647;53.688;10.746;2024-01-15T05:23:54;31.90;;;4.10;;
13163;SDS011;6647;53.688;10.746;2024-01-15T05:24:54;19.03;;;2.87;;
13163;SDS011;6647;53.688;10.746;2024-01-15T05:25:55;20.80;;;3.00;;
13163;SDS011;6647;53.688;10.746;2024-01-15T05:26:55;24.13;;;4.37;;
13163;SDS011;6647;53.688;10.746;2024-01-15T05:27:55;39.00;;;5.67;;
13163;SDS011;6647;53.688;10.746;2024-01-15T05:28:57;20.63;;;4.25;;
13163;SDS011;6647;53.688;10.746;2024-01-15T05:29:58;31.67;;;3.90;;
13163;SDS011;6647;53.688;10.746;2024-01-15T05:30:59;29.25;;;3.60;;
13163;SDS011;6647;53.688;10.746;2024-01-15T05:32:01;26.48;;;3.08;;
13163;SDS011;6647;53.688;10.746;2024-01-15T05:33:01;28.33;;;4.73;;
13163;SDS011;6647;53.688;10.746;2024-01-15T05:34:03;27.45;;;3.85;;
13163;SDS011;6647;53.688;10.746;2024-01-15T05:35:05;35.45;;;6.22;;
13163;SDS011;6647;53.688;10.746;2024-01-15T05:36:06;27.63;;;3.83;;
13163;SDS011;6647;53.688;10.746;2024-01-15T05:37:08;25.40;;;3.85;;
13163;SDS011;6647;53.688;10.746;2024-01-15T05:38:08;25.63;;;3.67;;
13163;SDS011;6647;53.688;10.746;2024-01-15T05:39:09;15.43;;;3.67;;
13163;SDS011;6647;53.688;10.746;2024-01-15T05:40:09;18.53;;;3.40;;
13163;SDS011;6647;53.688;10.746;2024-01-15T05:41:11;22.55;;;4.88;;
13163;SDS011;6647;53.688;10.746;2024-01-15T05:42:12;27.55;;;4.88;;
13163;SDS011;6647;53.688;10.746;2024-01-15T05:43:12;33.87;;;5.07;;
13163;SDS011;6647;53.688;10.746;2024-01-15T05:44:12;26.20;;;3.73;;
13163;SDS011;6647;53.688;10.746;2024-01-15T05:45:13;23.63;;;3.80;;
13163;SDS011;6647;53.688;10.746;2024-01-15T05:46:13;25.00;;;4.90;;
13163;SDS011;6647;53.688;10.746;2024-01-15T05:47:15;22.23;;;3.60;;
13163;SDS011;6647;53.688;10.746;2024-01-15T05:48:15;22.47;;;5.67;;
13163;SDS011;6647;53.688;10.746;2024-01-15T05:49:16;29.70;;;4.37;;
13163;SDS011;6647;53.688;10.746;2024-01-15T05:50:16;26.30;;;4.83;;
13163;SDS011;6647;53.688;10.746;2024-01-15T05:51:16;25.33;;;4.53;;
13163;SDS011;6647;53.688;10.746;2024-01-15T05:52:16;19.17;;;3.50;;
13163;SDS011;6647;53.688;10.746;2024-01-15T05:53:17;32.43;;;4.23;;
13163;SDS011;6647;53.688;10.746;2024-01-15T05:54:20;26.67;;;4.10;;
13163;SDS011;6647;53.688;10.746;2024-01-15T05:55:21;27.38;;;5.57;;
13163;SDS011;6647;53.688;10.746;2024-01-15T05:56:22;30.60;;;4.63;;
13163;SDS011;6647;53.688;10.746;2024-01-15T05:57:24;31.60;;;4.05;;
13163;SDS011;6647;53.688;10.746;2024-01-15T05:58:24;35.73;;;5.77;;
13163;SDS011;6647;53.688;10.746;2024-01-15T05:59:24;26.50;;;3.40;;
13163;SDS011;6647;53.688;10.746;2024-01-15T06:00:25;29.73;;;5.27;;
13163;SDS011;6647;53.688;10.746;2024-01-15T06:01:25;23.93;;;4.90;;
13163;SDS011;6647;53.688;10.746;2024-01-15T06:02:27;34.15;;;5.05;;
13163;SDS011;6647;53.688;10.746;2024-01-15T06:03:29;41.00;;;5.57;;